カンクン の空港の天気 - METARとTAF

カンクン国際空港 ( MMUN / CUN ) - メキシコ キンタナ・ロー州カンクン
飛行場実況気象(Metar)
観測時間01/18 19:45 CST (01/19 01:45 UTC)
風向・風速東北東 3m/s
視程10km以上
天気現象
全天の8割程度の雲 雲底高度 460m
気温23℃
湿度78%
気圧1020hPa
METARMMUN 190145Z 06005KT 7SM BKN015 23/19 A3011 RMK 8/500 AS CI
過去の天気等 Google飛行場航空写真 Wunderground天気予報

過去48時間のMETAR

飛行場予報(TAF)
発表時間: 1/18 17:52 CST (1/18 23:52 UTC)
予報対象時間: 18日18時 CST ~ 20日0時 CST
風向・風速東北東 4m/s
視程10km以上
全天の4割程度の雲 雲底高度 460m
全天の4割程度の雲 雲底高度 2440m
全天の8割程度の雲 雲底高度 7620m
18日20時 CST ~ 18日21時 CST に徐々に
風向・風速東 4m/s
全天の4割程度の雲 雲底高度 460m
19日12時 CST から
風向・風速東 8m/s
視程10km以上
全天の4割程度の雲 雲底高度 460m
19日16時 CST から 確率 40% で
視程10km以上
天気現象弱い雨
全天の4割程度の積乱雲 雲底高度 460m
TAF MMUN 182352Z 1900/2006 06008KT P6SM SCT015 SCT080 BKN250 TX27/1919Z TN15/1910Z
BECMG 1902/1903 09008KT SCT015
FM191800 09015KT P6SM SCT015
PROB40 1922/2003 6SM -RA SCT015CB